sensor_id;sensor_type;location;lat;lon;timestamp;P1;durP1;ratioP1;P2;durP2;ratioP2
73023;SDS011;61199;47.526;8.538;2022-11-18T00:01:08;5.33;;;1.10;;
73023;SDS011;61199;47.526;8.538;2022-11-18T00:03:37;10.43;;;1.40;;
73023;SDS011;61199;47.526;8.538;2022-11-18T00:06:04;4.67;;;1.30;;
73023;SDS011;61199;47.526;8.538;2022-11-18T00:08:32;4.57;;;1.40;;
73023;SDS011;61199;47.526;8.538;2022-11-18T00:11:03;2.27;;;1.00;;
73023;SDS011;61199;47.526;8.538;2022-11-18T00:13:31;3.80;;;1.17;;
73023;SDS011;61199;47.526;8.538;2022-11-18T00:16:16;2.67;;;1.13;;
73023;SDS011;61199;47.526;8.538;2022-11-18T00:18:42;1.83;;;1.23;;
73023;SDS011;61199;47.526;8.538;2022-11-18T00:21:09;1.67;;;1.03;;
73023;SDS011;61199;47.526;8.538;2022-11-18T00:23:37;4.40;;;1.50;;
73023;SDS011;61199;47.526;8.538;2022-11-18T00:26:04;3.30;;;1.57;;
73023;SDS011;61199;47.526;8.538;2022-11-18T00:28:32;1.73;;;1.40;;
73023;SDS011;61199;47.526;8.538;2022-11-18T00:31:09;5.70;;;1.80;;
73023;SDS011;61199;47.526;8.538;2022-11-18T00:33:36;6.23;;;3.40;;
73023;SDS011;61199;47.526;8.538;2022-11-18T00:36:04;5.20;;;2.50;;
73023;SDS011;61199;47.526;8.538;2022-11-18T00:38:31;3.93;;;2.57;;
73023;SDS011;61199;47.526;8.538;2022-11-18T00:40:58;5.67;;;2.50;;
73023;SDS011;61199;47.526;8.538;2022-11-18T00:43:33;5.87;;;3.80;;
73023;SDS011;61199;47.526;8.538;2022-11-18T00:46:00;6.27;;;4.20;;
73023;SDS011;61199;47.526;8.538;2022-11-18T00:48:27;8.23;;;4.63;;
73023;SDS011;61199;47.526;8.538;2022-11-18T00:50:55;9.03;;;5.40;;
73023;SDS011;61199;47.526;8.538;2022-11-18T00:53:23;7.53;;;5.13;;
73023;SDS011;61199;47.526;8.538;2022-11-18T00:55:52;8.80;;;5.10;;
73023;SDS011;61199;47.526;8.538;2022-11-18T00:58:18;7.80;;;5.33;;
73023;SDS011;61199;47.526;8.538;2022-11-18T01:00:45;9.37;;;5.87;;
73023;SDS011;61199;47.526;8.538;2022-11-18T01:03:14;9.13;;;5.73;;
73023;SDS011;61199;47.526;8.538;2022-11-18T01:05:41;10.57;;;4.30;;
73023;SDS011;61199;47.526;8.538;2022-11-18T01:08:08;5.70;;;3.60;;
73023;SDS011;61199;47.526;8.538;2022-11-18T01:10:35;5.83;;;3.53;;
73023;SDS011;61199;47.526;8.538;2022-11-18T01:13:04;6.30;;;3.27;;
73023;SDS011;61199;47.526;8.538;2022-11-18T01:15:47;6.70;;;3.50;;
73023;SDS011;61199;47.526;8.538;2022-11-18T01:18:16;6.40;;;2.73;;
73023;SDS011;61199;47.526;8.538;2022-11-18T01:20:44;3.57;;;2.30;;
73023;SDS011;61199;47.526;8.538;2022-11-18T01:23:12;4.23;;;1.70;;
73023;SDS011;61199;47.526;8.538;2022-11-18T01:25:39;4.80;;;2.20;;
73023;SDS011;61199;47.526;8.538;2022-11-18T01:28:07;3.23;;;1.60;;
73023;SDS011;61199;47.526;8.538;2022-11-18T01:30:35;2.50;;;1.10;;
73023;SDS011;61199;47.526;8.538;2022-11-18T01:33:05;3.00;;;1.30;;
73023;SDS011;61199;47.526;8.538;2022-11-18T01:35:33;1.37;;;0.80;;
73023;SDS011;61199;47.526;8.538;2022-11-18T01:38:00;1.60;;;1.00;;
73023;SDS011;61199;47.526;8.538;2022-11-18T01:40:27;1.50;;;1.10;;
73023;SDS011;61199;47.526;8.538;2022-11-18T01:42:54;2.37;;;0.90;;
73023;SDS011;61199;47.526;8.538;2022-11-18T01:45:25;1.60;;;0.97;;
73023;SDS011;61199;47.526;8.538;2022-11-18T01:48:01;1.63;;;1.00;;
73023;SDS011;61199;47.526;8.538;2022-11-18T01:50:36;2.63;;;1.07;;
73023;SDS011;61199;47.526;8.538;2022-11-18T01:53:44;5.30;;;1.03;;
73023;SDS011;61199;47.526;8.538;2022-11-18T01:56:07;1.40;;;0.77;;
73023;SDS011;61199;47.526;8.538;2022-11-18T01:58:38;1.40;;;0.90;;
73023;SDS011;61199;47.526;8.538;2022-11-18T02:01:08;1.33;;;1.00;;
73023;SDS011;61199;47.526;8.538;2022-11-18T02:03:35;1.50;;;0.93;;
73023;SDS011;61199;47.526;8.538;2022-11-18T02:06:02;1.73;;;0.87;;
73023;SDS011;61199;47.526;8.538;2022-11-18T02:08:31;2.40;;;0.90;;
73023;SDS011;61199;47.526;8.538;2022-11-18T02:10:58;1.80;;;0.80;;
73023;SDS011;61199;47.526;8.538;2022-11-18T02:13:25;4.63;;;0.87;;
73023;SDS011;61199;47.526;8.538;2022-11-18T02:16:09;2.63;;;0.90;;
73023;SDS011;61199;47.526;8.538;2022-11-18T02:18:57;2.70;;;1.27;;
73023;SDS011;61199;47.526;8.538;2022-11-18T02:21:30;1.30;;;0.80;;
73023;SDS011;61199;47.526;8.538;2022-11-18T02:30:16;2.10;;;0.60;;
73023;SDS011;61199;47.526;8.538;2022-11-18T02:32:48;1.70;;;1.00;;
73023;SDS011;61199;47.526;8.538;2022-11-18T02:38:14;3.20;;;0.80;;
73023;SDS011;61199;47.526;8.538;2022-11-18T02:40:49;1.43;;;0.70;;
73023;SDS011;61199;47.526;8.538;2022-11-18T02:43:21;1.00;;;0.70;;
73023;SDS011;61199;47.526;8.538;2022-11-18T02:45:53;1.50;;;0.80;;
73023;SDS011;61199;47.526;8.538;2022-11-18T02:48:24;1.03;;;0.70;;
73023;SDS011;61199;47.526;8.538;2022-11-18T02:50:55;2.23;;;0.83;;
73023;SDS011;61199;47.526;8.538;2022-11-18T02:53:23;0.97;;;0.70;;
73023;SDS011;61199;47.526;8.538;2022-11-18T02:55:53;2.10;;;0.73;;
73023;SDS011;61199;47.526;8.538;2022-11-18T02:58:20;0.77;;;0.60;;
73023;SDS011;61199;47.526;8.538;2022-11-18T03:00:52;3.37;;;0.80;;
73023;SDS011;61199;47.526;8.538;2022-11-18T03:03:27;3.43;;;1.17;;
73023;SDS011;61199;47.526;8.538;2022-11-18T03:06:01;1.10;;;0.80;;
73023;SDS011;61199;47.526;8.538;2022-11-18T03:08:30;1.30;;;0.60;;
73023;SDS011;61199;47.526;8.538;2022-11-18T03:11:16;1.40;;;0.70;;
73023;SDS011;61199;47.526;8.538;2022-11-18T03:16:55;1.10;;;0.60;;
73023;SDS011;61199;47.526;8.538;2022-11-18T03:19:33;2.70;;;0.87;;
73023;SDS011;61199;47.526;8.538;2022-11-18T03:22:17;2.50;;;0.70;;
73023;SDS011;61199;47.526;8.538;2022-11-18T03:24:53;0.90;;;0.80;;
73023;SDS011;61199;47.526;8.538;2022-11-18T03:27:29;1.80;;;0.90;;
73023;SDS011;61199;47.526;8.538;2022-11-18T03:30:05;2.93;;;0.80;;
73023;SDS011;61199;47.526;8.538;2022-11-18T03:32:36;2.30;;;1.00;;
73023;SDS011;61199;47.526;8.538;2022-11-18T03:35:08;1.47;;;0.80;;
73023;SDS011;61199;47.526;8.538;2022-11-18T03:37:40;2.70;;;0.70;;
73023;SDS011;61199;47.526;8.538;2022-11-18T03:40:16;1.60;;;0.67;;
73023;SDS011;61199;47.526;8.538;2022-11-18T03:42:47;0.90;;;0.60;;
73023;SDS011;61199;47.526;8.538;2022-11-18T03:45:28;0.80;;;0.43;;
73023;SDS011;61199;47.526;8.538;2022-11-18T03:48:01;1.30;;;0.60;;
73023;SDS011;61199;47.526;8.538;2022-11-18T03:50:38;1.47;;;0.80;;
73023;SDS011;61199;47.526;8.538;2022-11-18T03:53:09;0.93;;;0.40;;
73023;SDS011;61199;47.526;8.538;2022-11-18T03:55:38;0.80;;;0.50;;
73023;SDS011;61199;47.526;8.538;2022-11-18T03:58:12;1.20;;;0.60;;
73023;SDS011;61199;47.526;8.538;2022-11-18T04:00:45;0.90;;;0.40;;
73023;SDS011;61199;47.526;8.538;2022-11-18T04:03:16;0.80;;;0.50;;
73023;SDS011;61199;47.526;8.538;2022-11-18T04:05:42;1.63;;;0.50;;
73023;SDS011;61199;47.526;8.538;2022-11-18T04:08:10;0.80;;;0.50;;
73023;SDS011;61199;47.526;8.538;2022-11-18T04:10:52;0.80;;;0.50;;
73023;SDS011;61199;47.526;8.538;2022-11-18T04:13:29;0.70;;;0.50;;
73023;SDS011;61199;47.526;8.538;2022-11-18T04:15:58;1.30;;;0.50;;
73023;SDS011;61199;47.526;8.538;2022-11-18T04:18:25;1.43;;;0.53;;
73023;SDS011;61199;47.526;8.538;2022-11-18T04:20:52;1.37;;;0.60;;
73023;SDS011;61199;47.526;8.538;2022-11-18T04:23:18;0.70;;;0.50;;
73023;SDS011;61199;47.526;8.538;2022-11-18T04:25:45;0.70;;;0.50;;
73023;SDS011;61199;47.526;8.538;2022-11-18T04:28:11;0.80;;;0.50;;
73023;SDS011;61199;47.526;8.538;2022-11-18T04:30:38;0.90;;;0.50;;
73023;SDS011;61199;47.526;8.538;2022-11-18T04:33:04;3.13;;;0.60;;
73023;SDS011;61199;47.526;8.538;2022-11-18T04:35:30;0.90;;;0.50;;
73023;SDS011;61199;47.526;8.538;2022-11-18T04:37:57;0.70;;;0.50;;
73023;SDS011;61199;47.526;8.538;2022-11-18T04:40:23;0.80;;;0.50;;
73023;SDS011;61199;47.526;8.538;2022-11-18T04:42:50;0.70;;;0.50;;
73023;SDS011;61199;47.526;8.538;2022-11-18T04:45:16;0.70;;;0.50;;
73023;SDS011;61199;47.526;8.538;2022-11-18T04:47:43;0.87;;;0.53;;
73023;SDS011;61199;47.526;8.538;2022-11-18T04:50:09;1.47;;;0.60;;
73023;SDS011;61199;47.526;8.538;2022-11-18T04:52:35;0.90;;;0.50;;
73023;SDS011;61199;47.526;8.538;2022-11-18T04:55:02;0.93;;;0.57;;
73023;SDS011;61199;47.526;8.538;2022-11-18T04:57:28;1.20;;;0.50;;
73023;SDS011;61199;47.526;8.538;2022-11-18T04:59:55;1.07;;;0.60;;
73023;SDS011;61199;47.526;8.538;2022-11-18T05:02:21;1.00;;;0.50;;
73023;SDS011;61199;47.526;8.538;2022-11-18T05:04:48;2.20;;;0.40;;
73023;SDS011;61199;47.526;8.538;2022-11-18T05:07:14;0.90;;;0.50;;
73023;SDS011;61199;47.526;8.538;2022-11-18T05:09:41;0.97;;;0.60;;
73023;SDS011;61199;47.526;8.538;2022-11-18T05:12:09;1.20;;;0.70;;
73023;SDS011;61199;47.526;8.538;2022-11-18T05:14:56;1.33;;;0.40;;
73023;SDS011;61199;47.526;8.538;2022-11-18T05:17:22;0.73;;;0.50;;
73023;SDS011;61199;47.526;8.538;2022-11-18T05:19:48;1.40;;;0.50;;
73023;SDS011;61199;47.526;8.538;2022-11-18T05:22:15;0.93;;;0.50;;
73023;SDS011;61199;47.526;8.538;2022-11-18T05:24:41;0.93;;;0.53;;
73023;SDS011;61199;47.526;8.538;2022-11-18T05:27:08;0.90;;;0.57;;
73023;SDS011;61199;47.526;8.538;2022-11-18T05:29:34;2.00;;;0.70;;
73023;SDS011;61199;47.526;8.538;2022-11-18T05:32:01;1.30;;;0.53;;
73023;SDS011;61199;47.526;8.538;2022-11-18T05:34:27;3.23;;;0.70;;
73023;SDS011;61199;47.526;8.538;2022-11-18T05:36:53;0.80;;;0.50;;
73023;SDS011;61199;47.526;8.538;2022-11-18T05:39:20;2.30;;;0.73;;
73023;SDS011;61199;47.526;8.538;2022-11-18T05:41:46;0.70;;;0.50;;
73023;SDS011;61199;47.526;8.538;2022-11-18T05:44:31;0.90;;;0.60;;
73023;SDS011;61199;47.526;8.538;2022-11-18T05:46:58;0.80;;;0.60;;
73023;SDS011;61199;47.526;8.538;2022-11-18T05:49:25;0.70;;;0.40;;
73023;SDS011;61199;47.526;8.538;2022-11-18T05:51:51;1.53;;;0.60;;
73023;SDS011;61199;47.526;8.538;2022-11-18T05:54:18;0.70;;;0.50;;
73023;SDS011;61199;47.526;8.538;2022-11-18T05:56:45;1.33;;;0.50;;
73023;SDS011;61199;47.526;8.538;2022-11-18T05:59:12;1.00;;;0.50;;
73023;SDS011;61199;47.526;8.538;2022-11-18T06:04:19;1.87;;;0.70;;
73023;SDS011;61199;47.526;8.538;2022-11-18T06:06:51;0.90;;;0.50;;
73023;SDS011;61199;47.526;8.538;2022-11-18T06:09:30;1.80;;;0.60;;
73023;SDS011;61199;47.526;8.538;2022-11-18T06:11:59;3.27;;;0.60;;
73023;SDS011;61199;47.526;8.538;2022-11-18T06:14:38;0.93;;;0.50;;
73023;SDS011;61199;47.526;8.538;2022-11-18T06:17:09;1.13;;;0.50;;
73023;SDS011;61199;47.526;8.538;2022-11-18T06:19:40;1.30;;;0.50;;
73023;SDS011;61199;47.526;8.538;2022-11-18T06:22:07;1.00;;;0.70;;
73023;SDS011;61199;47.526;8.538;2022-11-18T06:24:34;1.10;;;0.60;;
73023;SDS011;61199;47.526;8.538;2022-11-18T06:27:02;3.57;;;0.60;;
73023;SDS011;61199;47.526;8.538;2022-11-18T06:29:29;0.90;;;0.60;;
73023;SDS011;61199;47.526;8.538;2022-11-18T06:31:56;1.10;;;0.50;;
73023;SDS011;61199;47.526;8.538;2022-11-18T06:34:22;1.20;;;0.60;;
73023;SDS011;61199;47.526;8.538;2022-11-18T06:36:49;0.80;;;0.50;;
73023;SDS011;61199;47.526;8.538;2022-11-18T06:39:15;1.20;;;0.50;;
73023;SDS011;61199;47.526;8.538;2022-11-18T06:41:42;2.10;;;0.70;;
73023;SDS011;61199;47.526;8.538;2022-11-18T06:44:10;1.57;;;0.80;;
73023;SDS011;61199;47.526;8.538;2022-11-18T06:46:37;1.80;;;0.60;;
73023;SDS011;61199;47.526;8.538;2022-11-18T06:49:22;0.80;;;0.50;;
73023;SDS011;61199;47.526;8.538;2022-11-18T06:51:50;1.37;;;0.63;;
73023;SDS011;61199;47.526;8.538;2022-11-18T06:54:16;2.30;;;1.10;;
73023;SDS011;61199;47.526;8.538;2022-11-18T06:56:43;0.80;;;0.53;;
73023;SDS011;61199;47.526;8.538;2022-11-18T06:59:09;0.80;;;0.50;;
73023;SDS011;61199;47.526;8.538;2022-11-18T07:01:36;1.67;;;0.50;;
73023;SDS011;61199;47.526;8.538;2022-11-18T07:04:04;1.93;;;1.00;;
73023;SDS011;61199;47.526;8.538;2022-11-18T07:06:32;1.53;;;0.63;;
73023;SDS011;61199;47.526;8.538;2022-11-18T07:09:00;4.60;;;0.57;;
73023;SDS011;61199;47.526;8.538;2022-11-18T07:11:28;5.70;;;0.90;;
73023;SDS011;61199;47.526;8.538;2022-11-18T07:13:54;1.00;;;0.60;;
73023;SDS011;61199;47.526;8.538;2022-11-18T07:16:22;1.00;;;0.60;;
73023;SDS011;61199;47.526;8.538;2022-11-18T07:18:50;0.70;;;0.50;;
73023;SDS011;61199;47.526;8.538;2022-11-18T07:21:18;0.90;;;0.50;;
73023;SDS011;61199;47.526;8.538;2022-11-18T07:23:46;1.00;;;0.70;;
73023;SDS011;61199;47.526;8.538;2022-11-18T07:26:13;1.00;;;0.60;;
73023;SDS011;61199;47.526;8.538;2022-11-18T07:28:41;1.97;;;0.60;;
73023;SDS011;61199;47.526;8.538;2022-11-18T07:33:39;1.43;;;0.80;;
73023;SDS011;61199;47.526;8.538;2022-11-18T07:36:10;1.07;;;0.60;;
73023;SDS011;61199;47.526;8.538;2022-11-18T07:38:41;1.20;;;0.70;;
73023;SDS011;61199;47.526;8.538;2022-11-18T07:41:09;1.47;;;0.60;;
73023;SDS011;61199;47.526;8.538;2022-11-18T07:43:39;2.50;;;0.70;;
73023;SDS011;61199;47.526;8.538;2022-11-18T07:46:07;3.67;;;0.70;;
73023;SDS011;61199;47.526;8.538;2022-11-18T07:48:39;1.80;;;0.60;;
73023;SDS011;61199;47.526;8.538;2022-11-18T07:51:06;4.43;;;1.10;;
73023;SDS011;61199;47.526;8.538;2022-11-18T07:53:33;1.57;;;0.50;;
73023;SDS011;61199;47.526;8.538;2022-11-18T07:56:00;0.80;;;0.70;;
73023;SDS011;61199;47.526;8.538;2022-11-18T07:58:27;2.20;;;0.93;;
73023;SDS011;61199;47.526;8.538;2022-11-18T08:00:54;1.90;;;0.80;;
73023;SDS011;61199;47.526;8.538;2022-11-18T08:03:26;1.27;;;0.87;;
73023;SDS011;61199;47.526;8.538;2022-11-18T08:06:00;1.77;;;0.80;;
73023;SDS011;61199;47.526;8.538;2022-11-18T08:08:27;2.20;;;1.00;;
73023;SDS011;61199;47.526;8.538;2022-11-18T08:10:54;2.20;;;0.73;;
73023;SDS011;61199;47.526;8.538;2022-11-18T08:13:22;1.80;;;0.80;;
73023;SDS011;61199;47.526;8.538;2022-11-18T08:15:48;2.23;;;1.10;;
73023;SDS011;61199;47.526;8.538;2022-11-18T08:18:15;2.43;;;1.00;;
73023;SDS011;61199;47.526;8.538;2022-11-18T08:20:41;1.20;;;0.90;;
73023;SDS011;61199;47.526;8.538;2022-11-18T08:23:10;2.20;;;1.20;;
73023;SDS011;61199;47.526;8.538;2022-11-18T08:25:40;2.43;;;1.20;;
73023;SDS011;61199;47.526;8.538;2022-11-18T08:28:08;7.50;;;1.33;;
73023;SDS011;61199;47.526;8.538;2022-11-18T08:30:35;1.80;;;1.30;;
73023;SDS011;61199;47.526;8.538;2022-11-18T08:33:02;1.10;;;0.90;;
73023;SDS011;61199;47.526;8.538;2022-11-18T08:35:30;3.40;;;1.10;;
73023;SDS011;61199;47.526;8.538;2022-11-18T08:37:58;3.80;;;1.00;;
73023;SDS011;61199;47.526;8.538;2022-11-18T08:40:25;3.87;;;1.20;;
73023;SDS011;61199;47.526;8.538;2022-11-18T08:42:51;3.33;;;1.20;;
73023;SDS011;61199;47.526;8.538;2022-11-18T08:45:18;1.80;;;1.10;;
73023;SDS011;61199;47.526;8.538;2022-11-18T08:47:45;4.33;;;1.20;;
73023;SDS011;61199;47.526;8.538;2022-11-18T08:50:11;1.97;;;1.20;;
73023;SDS011;61199;47.526;8.538;2022-11-18T08:52:37;1.50;;;1.20;;
73023;SDS011;61199;47.526;8.538;2022-11-18T08:55:04;5.40;;;1.10;;
73023;SDS011;61199;47.526;8.538;2022-11-18T08:57:30;2.13;;;1.00;;
73023;SDS011;61199;47.526;8.538;2022-11-18T08:59:57;1.80;;;1.00;;
73023;SDS011;61199;47.526;8.538;2022-11-18T09:02:23;1.60;;;0.97;;
73023;SDS011;61199;47.526;8.538;2022-11-18T09:04:50;1.47;;;1.20;;
73023;SDS011;61199;47.526;8.538;2022-11-18T09:07:17;1.67;;;0.90;;
73023;SDS011;61199;47.526;8.538;2022-11-18T09:09:45;3.27;;;1.30;;
73023;SDS011;61199;47.526;8.538;2022-11-18T09:12:12;0.90;;;0.70;;
73023;SDS011;61199;47.526;8.538;2022-11-18T09:14:41;1.97;;;0.70;;
73023;SDS011;61199;47.526;8.538;2022-11-18T09:17:28;0.90;;;0.80;;
73023;SDS011;61199;47.526;8.538;2022-11-18T09:19:54;1.50;;;0.97;;
73023;SDS011;61199;47.526;8.538;2022-11-18T09:22:20;1.30;;;1.00;;
73023;SDS011;61199;47.526;8.538;2022-11-18T09:24:47;1.53;;;1.00;;
73023;SDS011;61199;47.526;8.538;2022-11-18T09:27:13;3.10;;;0.90;;
73023;SDS011;61199;47.526;8.538;2022-11-18T09:29:43;2.77;;;1.20;;
73023;SDS011;61199;47.526;8.538;2022-11-18T09:32:10;2.03;;;1.23;;
73023;SDS011;61199;47.526;8.538;2022-11-18T09:34:36;1.00;;;0.80;;
73023;SDS011;61199;47.526;8.538;2022-11-18T09:37:03;1.57;;;0.87;;
73023;SDS011;61199;47.526;8.538;2022-11-18T09:39:35;1.73;;;1.10;;
73023;SDS011;61199;47.526;8.538;2022-11-18T09:44:59;3.63;;;1.13;;
73023;SDS011;61199;47.526;8.538;2022-11-18T09:47:39;0.93;;;0.77;;
73023;SDS011;61199;47.526;8.538;2022-11-18T09:50:09;1.83;;;1.63;;
73023;SDS011;61199;47.526;8.538;2022-11-18T09:53:18;1.90;;;1.03;;
73023;SDS011;61199;47.526;8.538;2022-11-18T09:55:48;2.27;;;1.10;;
73023;SDS011;61199;47.526;8.538;2022-11-18T09:58:20;4.73;;;1.00;;
73023;SDS011;61199;47.526;8.538;2022-11-18T10:00:53;2.30;;;0.80;;
73023;SDS011;61199;47.526;8.538;2022-11-18T10:03:22;4.00;;;1.00;;
73023;SDS011;61199;47.526;8.538;2022-11-18T10:05:57;1.20;;;0.90;;
73023;SDS011;61199;47.526;8.538;2022-11-18T10:08:35;3.37;;;1.10;;
73023;SDS011;61199;47.526;8.538;2022-11-18T10:11:14;1.20;;;0.80;;
73023;SDS011;61199;47.526;8.538;2022-11-18T10:13:48;1.00;;;0.70;;
73023;SDS011;61199;47.526;8.538;2022-11-18T10:22:29;1.53;;;0.90;;
73023;SDS011;61199;47.526;8.538;2022-11-18T10:25:06;4.37;;;1.20;;
73023;SDS011;61199;47.526;8.538;2022-11-18T10:27:41;1.20;;;0.77;;
73023;SDS011;61199;47.526;8.538;2022-11-18T10:30:10;4.13;;;1.20;;
73023;SDS011;61199;47.526;8.538;2022-11-18T10:32:52;1.20;;;0.90;;
73023;SDS011;61199;47.526;8.538;2022-11-18T10:35:24;1.57;;;1.00;;
73023;SDS011;61199;47.526;8.538;2022-11-18T10:38:05;5.90;;;1.00;;
73023;SDS011;61199;47.526;8.538;2022-11-18T10:40:43;1.43;;;1.17;;
73023;SDS011;61199;47.526;8.538;2022-11-18T10:43:10;1.27;;;0.90;;
73023;SDS011;61199;47.526;8.538;2022-11-18T10:45:38;5.73;;;1.00;;
73023;SDS011;61199;47.526;8.538;2022-11-18T10:50:45;2.63;;;1.30;;
73023;SDS011;61199;47.526;8.538;2022-11-18T10:56:02;6.23;;;0.97;;
73023;SDS011;61199;47.526;8.538;2022-11-18T10:58:45;1.10;;;0.87;;
73023;SDS011;61199;47.526;8.538;2022-11-18T11:04:27;2.40;;;0.90;;
73023;SDS011;61199;47.526;8.538;2022-11-18T11:06:47;1.03;;;0.93;;
73023;SDS011;61199;47.526;8.538;2022-11-18T11:11:59;1.10;;;0.87;;
73023;SDS011;61199;47.526;8.538;2022-11-18T11:17:17;1.10;;;0.80;;
73023;SDS011;61199;47.526;8.538;2022-11-18T11:19:49;1.13;;;0.83;;
73023;SDS011;61199;47.526;8.538;2022-11-18T11:22:48;1.20;;;0.80;;
73023;SDS011;61199;47.526;8.538;2022-11-18T11:25:36;1.47;;;0.90;;
73023;SDS011;61199;47.526;8.538;2022-11-18T11:36:52;5.40;;;0.90;;
73023;SDS011;61199;47.526;8.538;2022-11-18T11:59:18;1.53;;;0.90;;
73023;SDS011;61199;47.526;8.538;2022-11-18T12:02:11;1.70;;;0.80;;
73023;SDS011;61199;47.526;8.538;2022-11-18T12:08:15;1.00;;;0.87;;
73023;SDS011;61199;47.526;8.538;2022-11-18T12:13:47;2.93;;;1.23;;
73023;SDS011;61199;47.526;8.538;2022-11-18T12:16:27;2.10;;;1.00;;
73023;SDS011;61199;47.526;8.538;2022-11-18T12:19:00;2.07;;;1.00;;
73023;SDS011;61199;47.526;8.538;2022-11-18T12:29:55;0.90;;;0.70;;
73023;SDS011;61199;47.526;8.538;2022-11-18T12:32:36;2.80;;;0.70;;
73023;SDS011;61199;47.526;8.538;2022-11-18T12:42:56;1.67;;;0.70;;
73023;SDS011;61199;47.526;8.538;2022-11-18T12:50:53;1.57;;;0.67;;
73023;SDS011;61199;47.526;8.538;2022-11-18T12:53:27;1.07;;;0.70;;
73023;SDS011;61199;47.526;8.538;2022-11-18T12:55:58;0.97;;;0.63;;
73023;SDS011;61199;47.526;8.538;2022-11-18T12:58:25;1.90;;;0.80;;
73023;SDS011;61199;47.526;8.538;2022-11-18T13:01:05;1.07;;;0.90;;
73023;SDS011;61199;47.526;8.538;2022-11-18T13:03:34;1.70;;;0.80;;
73023;SDS011;61199;47.526;8.538;2022-11-18T13:06:03;3.63;;;0.93;;
73023;SDS011;61199;47.526;8.538;2022-11-18T13:08:32;2.13;;;0.90;;
73023;SDS011;61199;47.526;8.538;2022-11-18T13:13:58;3.23;;;1.00;;
73023;SDS011;61199;47.526;8.538;2022-11-18T13:16:44;1.30;;;0.90;;
73023;SDS011;61199;47.526;8.538;2022-11-18T13:19:32;3.23;;;1.20;;
73023;SDS011;61199;47.526;8.538;2022-11-18T13:22:00;1.40;;;0.90;;
73023;SDS011;61199;47.526;8.538;2022-11-18T13:24:47;1.17;;;0.90;;
73023;SDS011;61199;47.526;8.538;2022-11-18T13:27:18;2.20;;;1.50;;
73023;SDS011;61199;47.526;8.538;2022-11-18T13:32:35;1.23;;;0.83;;
73023;SDS011;61199;47.526;8.538;2022-11-18T13:35:11;1.77;;;0.80;;
73023;SDS011;61199;47.526;8.538;2022-11-18T13:37:50;1.03;;;0.80;;
73023;SDS011;61199;47.526;8.538;2022-11-18T13:40:38;3.90;;;0.67;;
73023;SDS011;61199;47.526;8.538;2022-11-18T13:43:29;3.40;;;0.80;;
73023;SDS011;61199;47.526;8.538;2022-11-18T13:46:00;1.17;;;0.80;;
73023;SDS011;61199;47.526;8.538;2022-11-18T13:48:32;1.00;;;0.60;;
73023;SDS011;61199;47.526;8.538;2022-11-18T13:51:01;1.50;;;0.70;;
73023;SDS011;61199;47.526;8.538;2022-11-18T13:53:32;1.23;;;0.67;;
73023;SDS011;61199;47.526;8.538;2022-11-18T13:56:06;1.60;;;0.80;;
73023;SDS011;61199;47.526;8.538;2022-11-18T13:58:50;3.27;;;1.50;;
73023;SDS011;61199;47.526;8.538;2022-11-18T14:01:43;1.20;;;1.00;;
73023;SDS011;61199;47.526;8.538;2022-11-18T14:07:14;1.43;;;0.80;;
73023;SDS011;61199;47.526;8.538;2022-11-18T14:09:53;2.80;;;1.10;;
73023;SDS011;61199;47.526;8.538;2022-11-18T14:12:22;4.40;;;1.10;;
73023;SDS011;61199;47.526;8.538;2022-11-18T14:14:51;1.77;;;0.93;;
73023;SDS011;61199;47.526;8.538;2022-11-18T14:17:26;2.23;;;1.00;;
73023;SDS011;61199;47.526;8.538;2022-11-18T14:19:54;4.07;;;1.10;;
73023;SDS011;61199;47.526;8.538;2022-11-18T14:22:26;4.50;;;1.50;;
73023;SDS011;61199;47.526;8.538;2022-11-18T14:27:35;3.90;;;1.97;;
73023;SDS011;61199;47.526;8.538;2022-11-18T14:35:39;2.92;;;1.20;;
73023;SDS011;61199;47.526;8.538;2022-11-18T14:38:11;4.20;;;0.90;;
73023;SDS011;61199;47.526;8.538;2022-11-18T14:41:04;1.97;;;0.87;;
73023;SDS011;61199;47.526;8.538;2022-11-18T14:43:33;2.63;;;1.30;;
73023;SDS011;61199;47.526;8.538;2022-11-18T14:46:01;2.20;;;1.00;;
73023;SDS011;61199;47.526;8.538;2022-11-18T14:48:29;2.70;;;1.00;;
73023;SDS011;61199;47.526;8.538;2022-11-18T14:50:58;1.50;;;0.73;;
73023;SDS011;61199;47.526;8.538;2022-11-18T14:53:25;2.97;;;1.00;;
73023;SDS011;61199;47.526;8.538;2022-11-18T14:55:52;4.10;;;1.17;;
73023;SDS011;61199;47.526;8.538;2022-11-18T14:58:21;2.30;;;1.27;;
73023;SDS011;61199;47.526;8.538;2022-11-18T15:00:48;3.67;;;1.60;;
73023;SDS011;61199;47.526;8.538;2022-11-18T15:03:15;2.10;;;1.20;;
73023;SDS011;61199;47.526;8.538;2022-11-18T15:05:42;4.37;;;1.37;;
73023;SDS011;61199;47.526;8.538;2022-11-18T15:08:08;3.60;;;1.40;;
73023;SDS011;61199;47.526;8.538;2022-11-18T15:10:35;3.20;;;1.37;;
73023;SDS011;61199;47.526;8.538;2022-11-18T15:13:01;2.70;;;1.13;;
73023;SDS011;61199;47.526;8.538;2022-11-18T15:15:28;3.90;;;1.10;;
73023;SDS011;61199;47.526;8.538;2022-11-18T15:17:54;4.10;;;1.03;;
73023;SDS011;61199;47.526;8.538;2022-11-18T15:20:20;2.67;;;1.17;;
73023;SDS011;61199;47.526;8.538;2022-11-18T15:22:48;2.27;;;1.13;;
73023;SDS011;61199;47.526;8.538;2022-11-18T15:25:14;6.30;;;1.70;;
73023;SDS011;61199;47.526;8.538;2022-11-18T15:27:41;5.87;;;1.77;;
73023;SDS011;61199;47.526;8.538;2022-11-18T15:30:09;3.03;;;1.37;;
73023;SDS011;61199;47.526;8.538;2022-11-18T15:32:37;3.03;;;1.70;;
73023;SDS011;61199;47.526;8.538;2022-11-18T15:35:03;4.33;;;1.40;;
73023;SDS011;61199;47.526;8.538;2022-11-18T15:37:30;2.07;;;1.40;;
73023;SDS011;61199;47.526;8.538;2022-11-18T15:39:56;5.90;;;2.10;;
73023;SDS011;61199;47.526;8.538;2022-11-18T15:42:23;3.63;;;1.60;;
73023;SDS011;61199;47.526;8.538;2022-11-18T15:44:49;3.20;;;2.20;;
73023;SDS011;61199;47.526;8.538;2022-11-18T15:47:15;9.40;;;1.77;;
73023;SDS011;61199;47.526;8.538;2022-11-18T15:49:42;3.93;;;2.20;;
73023;SDS011;61199;47.526;8.538;2022-11-18T15:52:10;3.70;;;2.57;;
73023;SDS011;61199;47.526;8.538;2022-11-18T15:54:37;10.93;;;2.10;;
73023;SDS011;61199;47.526;8.538;2022-11-18T15:57:04;4.70;;;2.30;;
73023;SDS011;61199;47.526;8.538;2022-11-18T15:59:30;4.50;;;2.07;;
73023;SDS011;61199;47.526;8.538;2022-11-18T16:01:57;4.40;;;2.53;;
73023;SDS011;61199;47.526;8.538;2022-11-18T16:04:23;6.00;;;3.47;;
73023;SDS011;61199;47.526;8.538;2022-11-18T16:06:49;3.77;;;2.30;;
73023;SDS011;61199;47.526;8.538;2022-11-18T16:09:16;4.10;;;2.50;;
73023;SDS011;61199;47.526;8.538;2022-11-18T16:11:43;3.60;;;2.20;;
73023;SDS011;61199;47.526;8.538;2022-11-18T16:14:28;3.40;;;1.37;;
73023;SDS011;61199;47.526;8.538;2022-11-18T16:16:55;3.43;;;1.80;;
73023;SDS011;61199;47.526;8.538;2022-11-18T16:19:22;4.07;;;1.60;;
73023;SDS011;61199;47.526;8.538;2022-11-18T16:21:51;4.00;;;1.67;;
73023;SDS011;61199;47.526;8.538;2022-11-18T16:24:21;4.70;;;1.60;;
73023;SDS011;61199;47.526;8.538;2022-11-18T16:26:52;3.87;;;1.90;;
73023;SDS011;61199;47.526;8.538;2022-11-18T16:29:18;4.50;;;1.37;;
73023;SDS011;61199;47.526;8.538;2022-11-18T16:31:47;6.90;;;1.63;;
73023;SDS011;61199;47.526;8.538;2022-11-18T16:34:24;2.23;;;1.70;;
73023;SDS011;61199;47.526;8.538;2022-11-18T16:36:53;4.30;;;2.10;;
73023;SDS011;61199;47.526;8.538;2022-11-18T16:39:22;3.97;;;2.10;;
73023;SDS011;61199;47.526;8.538;2022-11-18T16:41:51;3.60;;;1.30;;
73023;SDS011;61199;47.526;8.538;2022-11-18T16:44:19;5.13;;;1.90;;
73023;SDS011;61199;47.526;8.538;2022-11-18T16:46:53;5.60;;;2.17;;
73023;SDS011;61199;47.526;8.538;2022-11-18T16:49:22;6.40;;;3.23;;
73023;SDS011;61199;47.526;8.538;2022-11-18T16:51:51;5.43;;;1.90;;
73023;SDS011;61199;47.526;8.538;2022-11-18T16:54:20;19.67;;;4.07;;
73023;SDS011;61199;47.526;8.538;2022-11-18T16:56:51;4.87;;;2.73;;
73023;SDS011;61199;47.526;8.538;2022-11-18T16:59:20;5.90;;;3.33;;
73023;SDS011;61199;47.526;8.538;2022-11-18T17:01:49;6.27;;;3.00;;